Terminal Aerodrome Forecast
Issued by NWS

Home | Current Version | Previous Version | Text Only | Print | Product List | Glossary On
Versions: 1 2 3 4 5 6 7 8 9 10 11 12 13 14 15 16 17 18 19 20 21 22 23 24
000
FTAK31 PANC 291120
TAFAGK
TAF
PAGK 291120Z 2912/3012 VRB05KT P6SM VCSH BKN060
     FM291800 16010G18KT P6SM SCT060 BKN100
     FM292200 17015G25KT P6SM SCT080 SCT120
     FM300700 19007KT P6SM SCT150=

USA.gov is the U.S. government's official web portal to all federal, state and local government web resources and services.